Latest Coastal Weather Observations for Redcliffe

IDQ60701

Issued at 3:52 pm EST Wednesday 18 October 2017 (issued every 10 minutes, with the page automatically refreshed every 10 minutes)

About coastal observations | Map of coastal stations | Coastal observations for QLD | Marine services | Other Formats
Station Details ID: 040958 Name: REDCLIFFE Lat: -27.22 Lon: 153.09 Height: 12.6 m
Data from the previous 72 hours. | See also: Recent months at Redcliffe
Date/Time
EST
Temp
°C
Wind Pressure Rain since
9am
mm
Weather Cloud Vis
km
Sea
Height
m
Swell
Dir  Spd
kts
Gust
kts
hPa Trend Height
m
Period
s
Dir
18/03:30pm 21.0 SE 21 24 1022.9 - 1.2 - - - - - - -
18/03:00pm 21.7 ESE 21 26 1023.0 - 1.2 - - - - - - -
18/02:30pm 21.8 ESE 21 25 1023.2 - 1.2 - - - - - - -
18/02:00pm 21.3 ESE 21 27 1023.4 - 1.2 - - - - - - -
18/01:45pm 22.2 ESE 19 26 1023.3 - 0.2 - - - - - - -
18/01:30pm 21.6 SE 19 22 1023.6 - 0.2 - - - - - - -
18/01:00pm 20.5 SE 17 21 1023.9 - 0.2 - - - - - - -
18/12:30pm 19.9 SE 20 24 1024.3 - 0.2 - - - - - - -
18/12:00pm 20.9 SE 20 26 1024.4 - 0.2 - - - - - - -
18/11:30am 22.0 SE 21 26 1024.3 - 0.2 - - - - - - -
18/11:00am 22.6 ESE 18 22 1024.6 - 0.2 - - - - - - -
18/10:30am 22.8 ESE 21 26 1024.6 - 0.0 - - - - - - -
18/10:00am 23.3 ESE 23 27 1024.5 - 0.0 - - - - - - -
18/09:30am 22.5 ESE 23 28 1024.5 - 0.0 - - - - - - -
18/09:00am 22.6 ESE 22 28 1024.1 - 9.4 - - - - - - -
18/08:30am 22.2 ESE 21 27 1024.1 - 9.4 - - - - - - -
18/08:00am 21.9 ESE 23 29 1023.7 - 9.4 - - - - - - -
18/07:30am 21.5 ESE 22 27 1023.7 - 9.4 - - - - - - -
18/07:00am 21.6 ESE 25 28 1023.2 - 9.4 - - - - - - -
18/06:30am 21.2 ESE 21 27 1023.1 - 9.4 - - - - - - -
18/06:00am 20.3 SE 21 26 1022.7 - 9.4 Recent precip. - - - - - -
18/05:30am 19.9 ESE 20 25 1022.3 - 9.4 - - - - - - -
18/05:00am 19.7 SE 22 27 1021.9 - 9.2 - - - - - - -
18/04:30am 20.4 SE 21 27 1021.5 - 8.8 - - - - - - -
18/04:00am 19.7 ESE 22 27 1021.1 - 8.8 - - - - - - -
18/03:30am 19.8 SE 21 25 1021.0 - 8.0 - - - - - - -
18/03:00am 19.9 SE 21 26 1021.1 - 8.0 Recent precip. - - - - - -
18/02:30am 20.0 SE 22 27 1021.1 - 7.8 - - - - - - -
18/02:00am 20.2 SE 20 27 1021.3 - 7.6 - - - - - - -
18/01:30am 19.8 ESE 22 28 1021.4 - 7.6 - - - - - - -
18/01:00am 19.7 ESE 21 27 1021.7 - 7.4 - - - - - - -
18/12:30am 19.6 ESE 23 29 1022.1 - 6.0 - - - - - - -
18/12:00am 20.2 ESE 23 27 1022.4 - 5.8 Recent precip. - - - - - -
 
Date/Time
EST
Temp
°C
Wind Pressure Rain since
9am
mm
Weather Cloud Vis
km
Sea
Height
m
Swell
Dir  Spd
kts
Gust
kts
hPa Trend Height
m
Period
s
Dir
17/11:30pm 20.3 ESE 24 29 1022.5 - 5.8 - - - - - - -
17/11:00pm 19.7 SE 20 24 1022.8 - 5.6 - - - - - - -
17/10:30pm 19.7 SE 22 28 1023.0 - 5.6 - - - - - - -
17/10:00pm 19.7 SE 21 26 1023.0 - 5.4 - - - - - - -
17/09:30pm 19.9 SE 23 28 1022.8 - 5.2 - - - - - - -
17/09:00pm 19.6 SE 24 30 1022.4 - 5.0 Recent precip. - - - - - -
17/08:30pm 19.9 ESE 27 30 1022.5 - 4.4 - - - - - - -
17/08:00pm 20.6 SE 24 30 1022.3 - 4.4 - - - - - - -
17/07:30pm 20.1 ESE 25 32 1022.3 - 4.4 - - - - - - -
17/07:00pm 21.1 SE 24 29 1021.8 - 4.4 - - - - - - -
17/06:30pm 20.8 SE 25 29 1021.5 - 4.4 - - - - - - -
17/06:00pm 20.9 ESE 24 33 1021.0 - 4.2 Recent precip. - - - - - -
17/05:30pm 20.8 ESE 26 32 1020.7 - 3.4 - - - - - - -
17/05:00pm 20.2 SE 22 27 1020.5 - 3.2 - - - - - - -
17/04:30pm 20.3 ESE 23 29 1020.2 - 2.8 - - - - - - -
17/04:00pm 20.2 SE 23 28 1020.1 - 2.8 - - - - - - -
17/03:30pm 20.6 SE 24 30 1019.7 - 2.8 - - - - - - -
17/03:00pm 19.9 ESE 24 32 1019.4 - 2.6 Rain - - - - - -
17/02:30pm 20.6 SE 22 29 1019.6 - 1.2 - - - - - - -
17/02:00pm 20.4 ESE 24 29 1019.9 - 1.2 - - - - - - -
17/01:30pm 21.1 ESE 25 31 1019.5 - 0.6 - - - - - - -
17/01:00pm 21.2 SE 22 27 1020.0 - 0.6 - - - - - - -
17/12:30pm 21.2 SE 20 26 1020.3 - 0.6 - - - - - - -
17/12:00pm 20.9 SE 23 29 1020.6 - 0.6 - - - - - - -
17/11:30am 20.8 SE 23 27 1020.7 - 0.6 - - - - - - -
17/11:00am 19.6 ESE 25 30 1021.0 - 0.6 - - - - - - -
17/10:44am 21.4 SE 24 35 1021.1 - 0.0 - - - - - - -
17/10:30am 21.2 ESE 26 31 1021.1 - 0.0 - - - - - - -
17/10:00am 20.3 ESE 28 38 1021.2 - 0.0 - - - - - - -
17/09:30am 21.7 ESE 26 31 1021.1 - 0.0 - - - - - - -
17/09:00am 21.6 ESE 27 32 1020.8 - 4.2 - - - - - - -
17/08:30am 21.5 ESE 27 33 1020.8 - 4.2 - - - - - - -
17/08:00am 21.5 ESE 27 34 1020.2 - 4.2 - - - - - - -
17/07:30am 20.9 ESE 26 33 1020.4 - 4.2 - - - - - - -
17/07:00am 20.4 SE 26 32 1019.9 - 4.0 - - - - - - -
17/06:30am 20.9 ESE 26 33 1019.4 - 4.0 - - - - - - -
17/06:00am 20.6 SE 25 33 1018.8 - 4.0 Recent precip. - - - - - -
17/05:30am 20.3 SE 26 31 1018.7 - 4.0 - - - - - - -
17/05:00am 20.2 ESE 25 30 1018.8 - 3.8 - - - - - - -
17/04:30am 18.7 ESE 25 34 1018.8 - 3.6 - - - - - - -
17/04:00am 20.6 SE 25 30 1018.4 - 2.2 - - - - - - -
17/03:30am 20.4 ESE 24 30 1018.4 - 2.2 - - - - - - -
17/03:00am 21.0 ESE 24 29 1018.7 - 2.2 - - - - - - -
17/02:30am 21.2 ESE 24 30 1018.8 - 2.2 - - - - - - -
17/02:00am 21.2 ESE 25 30 1019.0 - 2.2 - - - - - - -
17/01:30am 21.4 ESE 25 30 1019.2 - 2.2 - - - - - - -
17/01:00am 21.5 ESE 23 27 1019.5 - 2.2 - - - - - - -
17/12:30am 21.4 ESE 23 28 1019.7 - 2.2 - - - - - - -
17/12:00am 21.3 ESE 24 29 1019.9 - 2.2 - - - - - - -
 
Date/Time
EST
Temp
°C
Wind Pressure Rain since
9am
mm
Weather Cloud Vis
km
Sea
Height
m
Swell
Dir  Spd
kts
Gust
kts
hPa Trend Height
m
Period
s
Dir
16/11:30pm 21.3 ESE 22 28 1020.3 - 2.2 - - - - - - -
16/11:00pm 21.5 ESE 23 27 1020.6 - 2.2 - - - - - - -
16/10:30pm 21.5 ESE 25 30 1020.8 - 2.2 - - - - - - -
16/10:00pm 21.5 ESE 25 31 1020.7 - 2.2 - - - - - - -
16/09:30pm 21.4 ESE 24 29 1020.7 - 2.2 - - - - - - -
16/09:00pm 21.4 ESE 25 29 1020.4 - 2.2 - - - - - - -
16/08:30pm 21.5 ESE 22 27 1020.3 - 2.2 - - - - - - -
16/08:00pm 21.5 ESE 23 30 1020.0 - 2.2 - - - - - - -
16/07:30pm 21.3 ESE 23 28 1019.8 - 2.2 - - - - - - -
16/07:00pm 21.1 SE 22 27 1019.6 - 2.2 - - - - - - -
16/06:34pm 20.8 SE 22 33 1019.3 - 2.2 - - - - - - -
16/06:30pm 20.4 SE 21 26 1019.3 - 2.0 - - - - - - -
16/06:00pm 21.4 SE 21 26 1019.0 - 1.4 - - - - - - -
16/05:30pm 21.2 SE 22 27 1018.8 - 1.4 - - - - - - -
16/05:00pm 21.1 SE 21 25 1018.7 - 1.4 - - - - - - -
16/04:30pm 20.7 SE 22 28 1018.6 - 1.4 - - - - - - -
16/04:00pm 20.3 SE 22 30 1018.2 - 1.0 - - - - - - -
16/03:30pm 20.3 SE 27 31 1017.8 - 0.4 - - - - - - -
16/03:00pm 20.9 SE 23 28 1017.6 - 0.4 - - - - - - -
16/02:30pm 21.5 SE 24 30 1017.7 - 0.4 - - - - - - -
16/02:00pm 21.5 SE 25 29 1017.7 - 0.4 - - - - - - -
16/01:30pm 21.6 SE 24 29 1017.9 - 0.4 - - - - - - -
16/01:00pm 21.7 SE 26 31 1018.2 - 0.4 - - - - - - -
16/12:30pm 21.5 SE 24 29 1018.4 - 0.4 - - - - - - -
16/12:00pm 21.5 SE 24 30 1018.7 - 0.4 Rain - - - - - -
16/11:30am 21.3 SE 23 29 1019.0 - 0.2 - - - - - - -
16/11:00am 21.7 SE 24 29 1019.1 - 0.2 - - - - - - -
16/10:30am 21.4 ESE 25 32 1019.1 - 0.2 - - - - - - -
16/10:00am 21.2 ESE 27 34 1019.3 - 0.0 - - - - - - -
16/09:30am 21.9 ESE 27 33 1018.8 - 0.0 - - - - - - -
16/09:00am 21.7 ESE 25 33 1019.1 - 19.4 - - - - - - -
16/08:30am 21.1 ESE 26 31 1018.8 - 19.4 - - - - - - -
16/08:00am 20.3 ESE 26 31 1019.0 - 19.4 - - - - - - -
16/07:30am 20.6 SE 23 28 1018.7 - 19.2 - - - - - - -
16/07:00am 21.1 ESE 26 30 1018.2 - 19.0 - - - - - - -
16/06:30am 21.4 ESE 24 28 1017.8 - 19.0 - - - - - - -
16/06:00am 21.3 ESE 23 27 1017.8 - 18.8 - - - - - - -
16/05:30am 21.5 ESE 23 27 1017.4 - 18.8 - - - - - - -
16/05:00am 21.5 ESE 23 26 1016.8 - 18.8 - - - - - - -
16/04:30am 21.5 ESE 21 27 1017.1 - 18.8 - - - - - - -
16/04:00am 21.3 ESE 22 27 1016.7 - 18.8 - - - - - - -
16/03:30am 21.4 ESE 26 29 1016.3 - 18.8 - - - - - - -
16/03:00am 21.1 ESE 23 30 1016.3 - 18.8 Recent precip. - - - - - -
16/02:30am 20.6 ESE 23 29 1016.6 - 18.8 - - - - - - -
16/02:00am 21.1 SE 19 25 1017.1 - 18.4 - - - - - - -
16/01:30am 21.2 SE 24 29 1017.0 - 18.4 - - - - - - -
16/01:00am 21.3 SE 24 29 1017.1 - 18.4 - - - - - - -
16/12:30am 21.0 SE 23 28 1017.4 - 18.4 - - - - - - -
16/12:00am 20.9 SE 25 29 1017.6 - 18.4 - - - - - - -
 
Date/Time
EST
Temp
°C
Wind Pressure Rain since
9am
mm
Weather Cloud Vis
km
Sea
Height
m
Swell
Dir  Spd
kts
Gust
kts
hPa Trend Height
m
Period
s
Dir
15/11:30pm 20.9 SE 27 32 1017.8 - 18.4 - - - - - - -
15/11:00pm 20.8 SE 25 30 1018.3 - 18.4 - - - - - - -
15/10:30pm 20.7 SE 26 31 1018.5 - 18.4 - - - - - - -
15/10:00pm 20.8 SE 22 29 1018.2 - 18.4 - - - - - - -
15/09:30pm 20.8 SE 23 28 1018.3 - 18.4 - - - - - - -
15/09:00pm 21.0 SE 22 28 1018.3 - 18.4 - - - - - - -
15/08:30pm 20.5 SE 27 33 1018.2 - 18.4 - - - - - - -
15/08:00pm 20.4 ESE 26 31 1017.9 - 18.4 - - - - - - -
15/07:38pm 19.8 ESE 23 33 1017.9 - 18.2 - - - - - - -
15/07:30pm 18.8 E 24 32 1017.8 - 18.0 - - - - - - -
15/07:00pm 18.4 E 23 30 1017.6 - 16.2 - - - - - - -
15/06:51pm 19.0 ESE 25 32 1017.4 - 14.2 - - - - - - -
15/06:41pm 18.7 SE 25 29 1017.3 - 13.0 - - - - - - -
15/06:30pm 18.3 ESE 26 31 1017.3 - 12.4 - - - - - - -
15/06:21pm 18.6 ESE 25 37 1017.1 - 10.6 - - - - - - -
15/06:18pm 19.9 SE 24 34 1017.1 - 10.4 - - - - - - -
15/06:00pm 20.0 SE 25 31 1016.9 - 10.2 Recent precip. - - - - - -
15/05:30pm 20.6 ESE 24 30 1016.4 - 10.2 - - - - - - -
15/05:00pm 19.4 ESE 23 29 1016.3 - 10.0 - - - - - - -
15/04:30pm 19.2 ESE 30 37 1015.7 - 8.8 - - - - - - -
15/04:12pm 18.9 SE 24 34 1015.9 - 7.8 - - - - - - -
15/04:00pm 19.0 SE 29 37 1015.7 - 6.0 - - - - - - -
15/03:52pm 19.7 SE 24 37 1015.5 - 5.2 - - - - - - -

Other Formats:

Comma delimited format used in spreadsheet applications
http://www.bom.gov.au/fwo/IDQ60701/IDQ60701.95591.axf

JavaScript Object Notation format (JSON) in row-major order
http://www.bom.gov.au/fwo/IDQ60701/IDQ60701.95591.json